sensor_id;sensor_type;location;lat;lon;timestamp;P1;durP1;ratioP1;P2;durP2;ratioP2
79036;SDS011;68434;59.896;30.474;2023-06-26T00:01:06;9.20;;;7.05;;
79036;SDS011;68434;59.896;30.474;2023-06-26T00:03:33;8.95;;;7.07;;
79036;SDS011;68434;59.896;30.474;2023-06-26T00:06:01;7.88;;;6.90;;
79036;SDS011;68434;59.896;30.474;2023-06-26T00:08:29;7.97;;;6.15;;
79036;SDS011;68434;59.896;30.474;2023-06-26T00:10:56;11.13;;;7.28;;
79036;SDS011;68434;59.896;30.474;2023-06-26T00:13:24;9.13;;;6.97;;
79036;SDS011;68434;59.896;30.474;2023-06-26T00:15:52;8.25;;;6.30;;
79036;SDS011;68434;59.896;30.474;2023-06-26T00:18:21;9.93;;;6.28;;
79036;SDS011;68434;59.896;30.474;2023-06-26T00:20:49;10.35;;;6.90;;
79036;SDS011;68434;59.896;30.474;2023-06-26T00:23:16;7.72;;;6.75;;
79036;SDS011;68434;59.896;30.474;2023-06-26T00:25:44;8.38;;;5.95;;
79036;SDS011;68434;59.896;30.474;2023-06-26T00:28:12;12.85;;;6.60;;
79036;SDS011;68434;59.896;30.474;2023-06-26T00:30:39;7.70;;;5.93;;
79036;SDS011;68434;59.896;30.474;2023-06-26T00:33:07;9.13;;;6.22;;
79036;SDS011;68434;59.896;30.474;2023-06-26T00:35:36;8.73;;;5.90;;
79036;SDS011;68434;59.896;30.474;2023-06-26T00:38:03;8.68;;;7.00;;
79036;SDS011;68434;59.896;30.474;2023-06-26T00:40:31;10.05;;;6.25;;
79036;SDS011;68434;59.896;30.474;2023-06-26T00:42:59;10.80;;;6.95;;
79036;SDS011;68434;59.896;30.474;2023-06-26T00:45:26;7.45;;;6.57;;
79036;SDS011;68434;59.896;30.474;2023-06-26T00:47:54;8.52;;;6.68;;
79036;SDS011;68434;59.896;30.474;2023-06-26T00:50:22;9.70;;;6.57;;
79036;SDS011;68434;59.896;30.474;2023-06-26T00:52:51;7.55;;;6.25;;
79036;SDS011;68434;59.896;30.474;2023-06-26T00:55:21;9.65;;;6.53;;
79036;SDS011;68434;59.896;30.474;2023-06-26T00:57:48;8.80;;;6.07;;
79036;SDS011;68434;59.896;30.474;2023-06-26T01:00:16;10.23;;;6.60;;
79036;SDS011;68434;59.896;30.474;2023-06-26T01:05:12;8.13;;;5.43;;
79036;SDS011;68434;59.896;30.474;2023-06-26T01:07:50;7.28;;;6.20;;
79036;SDS011;68434;59.896;30.474;2023-06-26T01:10:18;9.45;;;5.97;;
79036;SDS011;68434;59.896;30.474;2023-06-26T01:15:13;10.25;;;6.30;;
79036;SDS011;68434;59.896;30.474;2023-06-26T01:17:41;7.95;;;6.15;;
79036;SDS011;68434;59.896;30.474;2023-06-26T01:20:10;10.60;;;6.65;;
79036;SDS011;68434;59.896;30.474;2023-06-26T01:22:42;8.10;;;6.63;;
79036;SDS011;68434;59.896;30.474;2023-06-26T01:25:21;10.25;;;7.18;;
79036;SDS011;68434;59.896;30.474;2023-06-26T01:27:57;7.75;;;5.68;;
79036;SDS011;68434;59.896;30.474;2023-06-26T01:30:26;8.05;;;5.90;;
79036;SDS011;68434;59.896;30.474;2023-06-26T01:32:55;8.25;;;6.22;;
79036;SDS011;68434;59.896;30.474;2023-06-26T01:35:23;8.02;;;6.30;;
79036;SDS011;68434;59.896;30.474;2023-06-26T01:37:51;10.35;;;6.20;;
79036;SDS011;68434;59.896;30.474;2023-06-26T01:40:19;9.25;;;6.65;;
79036;SDS011;68434;59.896;30.474;2023-06-26T01:45:18;8.82;;;6.20;;
79036;SDS011;68434;59.896;30.474;2023-06-26T01:47:51;9.38;;;6.10;;
79036;SDS011;68434;59.896;30.474;2023-06-26T01:50:22;7.35;;;6.07;;
79036;SDS011;68434;59.896;30.474;2023-06-26T01:52:53;10.68;;;6.80;;
79036;SDS011;68434;59.896;30.474;2023-06-26T01:55:31;9.77;;;6.43;;
79036;SDS011;68434;59.896;30.474;2023-06-26T01:58:03;9.07;;;6.45;;
79036;SDS011;68434;59.896;30.474;2023-06-26T02:00:32;8.52;;;7.00;;
79036;SDS011;68434;59.896;30.474;2023-06-26T02:03:01;8.40;;;6.68;;
79036;SDS011;68434;59.896;30.474;2023-06-26T02:05:30;8.32;;;5.65;;
79036;SDS011;68434;59.896;30.474;2023-06-26T02:07:58;9.73;;;6.05;;
79036;SDS011;68434;59.896;30.474;2023-06-26T02:10:30;9.32;;;7.15;;
79036;SDS011;68434;59.896;30.474;2023-06-26T02:12:58;9.27;;;6.65;;
79036;SDS011;68434;59.896;30.474;2023-06-26T02:15:26;8.00;;;6.55;;
79036;SDS011;68434;59.896;30.474;2023-06-26T02:17:56;8.60;;;6.80;;
79036;SDS011;68434;59.896;30.474;2023-06-26T02:20:23;7.57;;;6.15;;
79036;SDS011;68434;59.896;30.474;2023-06-26T02:22:51;9.43;;;6.45;;
79036;SDS011;68434;59.896;30.474;2023-06-26T02:25:19;8.57;;;6.82;;
79036;SDS011;68434;59.896;30.474;2023-06-26T02:27:47;10.57;;;7.40;;
79036;SDS011;68434;59.896;30.474;2023-06-26T02:30:14;7.75;;;6.85;;
79036;SDS011;68434;59.896;30.474;2023-06-26T02:32:42;9.32;;;6.93;;
79036;SDS011;68434;59.896;30.474;2023-06-26T02:35:11;8.38;;;6.70;;
79036;SDS011;68434;59.896;30.474;2023-06-26T02:37:42;9.02;;;6.72;;
79036;SDS011;68434;59.896;30.474;2023-06-26T02:40:10;8.93;;;6.65;;
79036;SDS011;68434;59.896;30.474;2023-06-26T02:42:40;7.80;;;7.00;;
79036;SDS011;68434;59.896;30.474;2023-06-26T02:45:09;8.77;;;6.32;;
79036;SDS011;68434;59.896;30.474;2023-06-26T02:47:36;7.88;;;6.18;;
79036;SDS011;68434;59.896;30.474;2023-06-26T02:50:06;7.22;;;6.18;;
79036;SDS011;68434;59.896;30.474;2023-06-26T02:52:55;8.18;;;6.53;;
79036;SDS011;68434;59.896;30.474;2023-06-26T02:55:23;7.75;;;5.85;;
79036;SDS011;68434;59.896;30.474;2023-06-26T02:57:52;8.43;;;6.88;;
79036;SDS011;68434;59.896;30.474;2023-06-26T03:00:20;8.27;;;5.95;;
79036;SDS011;68434;59.896;30.474;2023-06-26T03:02:50;11.07;;;7.22;;
79036;SDS011;68434;59.896;30.474;2023-06-26T03:05:19;8.63;;;6.57;;
79036;SDS011;68434;59.896;30.474;2023-06-26T03:07:47;12.27;;;7.30;;
79036;SDS011;68434;59.896;30.474;2023-06-26T03:10:16;8.02;;;7.20;;
79036;SDS011;68434;59.896;30.474;2023-06-26T03:12:45;8.65;;;7.00;;
79036;SDS011;68434;59.896;30.474;2023-06-26T03:15:12;9.77;;;6.80;;
79036;SDS011;68434;59.896;30.474;2023-06-26T03:17:40;9.82;;;6.88;;
79036;SDS011;68434;59.896;30.474;2023-06-26T03:20:12;9.52;;;5.88;;
79036;SDS011;68434;59.896;30.474;2023-06-26T03:22:51;8.35;;;6.38;;
79036;SDS011;68434;59.896;30.474;2023-06-26T03:25:21;9.40;;;6.63;;
79036;SDS011;68434;59.896;30.474;2023-06-26T03:27:53;9.60;;;7.53;;
79036;SDS011;68434;59.896;30.474;2023-06-26T03:30:21;8.90;;;6.72;;
79036;SDS011;68434;59.896;30.474;2023-06-26T03:32:51;9.20;;;7.45;;
79036;SDS011;68434;59.896;30.474;2023-06-26T03:35:22;9.65;;;7.40;;
79036;SDS011;68434;59.896;30.474;2023-06-26T03:37:51;9.80;;;7.57;;
79036;SDS011;68434;59.896;30.474;2023-06-26T03:40:18;9.93;;;7.40;;
79036;SDS011;68434;59.896;30.474;2023-06-26T03:42:47;12.45;;;7.75;;
79036;SDS011;68434;59.896;30.474;2023-06-26T03:45:15;10.63;;;8.48;;
79036;SDS011;68434;59.896;30.474;2023-06-26T03:47:43;10.05;;;7.70;;
79036;SDS011;68434;59.896;30.474;2023-06-26T03:50:13;10.48;;;6.97;;
79036;SDS011;68434;59.896;30.474;2023-06-26T03:52:41;10.00;;;7.65;;
79036;SDS011;68434;59.896;30.474;2023-06-26T03:55:11;8.95;;;7.40;;
79036;SDS011;68434;59.896;30.474;2023-06-26T03:57:41;11.00;;;8.23;;
79036;SDS011;68434;59.896;30.474;2023-06-26T04:00:09;9.55;;;8.55;;
79036;SDS011;68434;59.896;30.474;2023-06-26T04:02:41;11.45;;;7.95;;
79036;SDS011;68434;59.896;30.474;2023-06-26T04:05:10;9.35;;;8.15;;
79036;SDS011;68434;59.896;30.474;2023-06-26T04:10:06;8.75;;;6.60;;
79036;SDS011;68434;59.896;30.474;2023-06-26T04:12:34;10.48;;;7.63;;
79036;SDS011;68434;59.896;30.474;2023-06-26T04:17:31;6.35;;;5.68;;
79036;SDS011;68434;59.896;30.474;2023-06-26T04:19:59;8.50;;;6.63;;
79036;SDS011;68434;59.896;30.474;2023-06-26T04:22:29;8.10;;;7.10;;
79036;SDS011;68434;59.896;30.474;2023-06-26T04:24:57;9.07;;;7.55;;
79036;SDS011;68434;59.896;30.474;2023-06-26T04:27:24;8.95;;;6.82;;
79036;SDS011;68434;59.896;30.474;2023-06-26T04:29:52;9.50;;;6.10;;
79036;SDS011;68434;59.896;30.474;2023-06-26T04:32:20;11.38;;;6.82;;
79036;SDS011;68434;59.896;30.474;2023-06-26T04:34:49;8.43;;;7.40;;
79036;SDS011;68434;59.896;30.474;2023-06-26T04:37:17;8.45;;;6.75;;
79036;SDS011;68434;59.896;30.474;2023-06-26T04:39:45;8.23;;;6.30;;
79036;SDS011;68434;59.896;30.474;2023-06-26T04:42:13;8.40;;;6.93;;
79036;SDS011;68434;59.896;30.474;2023-06-26T04:44:41;7.07;;;6.00;;
79036;SDS011;68434;59.896;30.474;2023-06-26T04:47:09;8.45;;;6.78;;
79036;SDS011;68434;59.896;30.474;2023-06-26T04:52:11;6.78;;;6.03;;
79036;SDS011;68434;59.896;30.474;2023-06-26T04:54:39;8.55;;;6.10;;
79036;SDS011;68434;59.896;30.474;2023-06-26T04:57:07;8.75;;;6.10;;
79036;SDS011;68434;59.896;30.474;2023-06-26T04:59:37;8.77;;;6.78;;
79036;SDS011;68434;59.896;30.474;2023-06-26T05:02:05;7.50;;;6.15;;
79036;SDS011;68434;59.896;30.474;2023-06-26T05:04:33;7.93;;;6.65;;
79036;SDS011;68434;59.896;30.474;2023-06-26T05:07:02;8.48;;;5.65;;
79036;SDS011;68434;59.896;30.474;2023-06-26T05:09:30;8.10;;;6.57;;
79036;SDS011;68434;59.896;30.474;2023-06-26T05:11:58;7.32;;;6.05;;
79036;SDS011;68434;59.896;30.474;2023-06-26T05:14:26;8.35;;;5.80;;
79036;SDS011;68434;59.896;30.474;2023-06-26T05:16:53;7.07;;;5.78;;
79036;SDS011;68434;59.896;30.474;2023-06-26T05:19:21;7.53;;;5.63;;
79036;SDS011;68434;59.896;30.474;2023-06-26T05:21:48;7.57;;;6.05;;
79036;SDS011;68434;59.896;30.474;2023-06-26T05:24:19;8.15;;;5.65;;
79036;SDS011;68434;59.896;30.474;2023-06-26T05:26:48;9.00;;;5.75;;
79036;SDS011;68434;59.896;30.474;2023-06-26T05:35:07;7.20;;;5.15;;
79036;SDS011;68434;59.896;30.474;2023-06-26T05:37:36;7.20;;;6.00;;
79036;SDS011;68434;59.896;30.474;2023-06-26T05:40:06;8.90;;;5.20;;
79036;SDS011;68434;59.896;30.474;2023-06-26T05:42:35;7.85;;;5.68;;
79036;SDS011;68434;59.896;30.474;2023-06-26T05:45:03;6.65;;;5.40;;
79036;SDS011;68434;59.896;30.474;2023-06-26T05:50:35;6.30;;;5.57;;
79036;SDS011;68434;59.896;30.474;2023-06-26T05:53:03;6.85;;;6.13;;
79036;SDS011;68434;59.896;30.474;2023-06-26T05:55:33;6.13;;;5.03;;
79036;SDS011;68434;59.896;30.474;2023-06-26T06:03:36;6.70;;;5.30;;
79036;SDS011;68434;59.896;30.474;2023-06-26T06:09:08;7.85;;;5.45;;
79036;SDS011;68434;59.896;30.474;2023-06-26T06:11:55;7.47;;;4.93;;
79036;SDS011;68434;59.896;30.474;2023-06-26T06:14:23;7.97;;;5.63;;
79036;SDS011;68434;59.896;30.474;2023-06-26T06:16:51;6.88;;;5.72;;
79036;SDS011;68434;59.896;30.474;2023-06-26T06:19:18;6.30;;;4.97;;
79036;SDS011;68434;59.896;30.474;2023-06-26T06:21:46;6.97;;;5.80;;
79036;SDS011;68434;59.896;30.474;2023-06-26T06:24:13;6.85;;;5.90;;
79036;SDS011;68434;59.896;30.474;2023-06-26T06:26:41;7.18;;;5.30;;
79036;SDS011;68434;59.896;30.474;2023-06-26T06:29:10;8.52;;;6.05;;
79036;SDS011;68434;59.896;30.474;2023-06-26T06:31:37;6.82;;;5.43;;
79036;SDS011;68434;59.896;30.474;2023-06-26T06:34:23;6.88;;;6.13;;
79036;SDS011;68434;59.896;30.474;2023-06-26T06:36:51;7.85;;;5.43;;
79036;SDS011;68434;59.896;30.474;2023-06-26T06:42:04;6.85;;;5.28;;
79036;SDS011;68434;59.896;30.474;2023-06-26T06:44:33;7.78;;;6.25;;
79036;SDS011;68434;59.896;30.474;2023-06-26T06:47:01;6.57;;;5.57;;
79036;SDS011;68434;59.896;30.474;2023-06-26T06:49:29;6.95;;;5.55;;
79036;SDS011;68434;59.896;30.474;2023-06-26T06:51:57;8.30;;;5.93;;
79036;SDS011;68434;59.896;30.474;2023-06-26T06:57:20;8.25;;;6.35;;
79036;SDS011;68434;59.896;30.474;2023-06-26T06:59:49;7.43;;;6.00;;
79036;SDS011;68434;59.896;30.474;2023-06-26T07:02:17;6.38;;;5.40;;
79036;SDS011;68434;59.896;30.474;2023-06-26T07:04:45;6.78;;;6.00;;
79036;SDS011;68434;59.896;30.474;2023-06-26T07:10:01;8.00;;;5.55;;
79036;SDS011;68434;59.896;30.474;2023-06-26T07:12:48;8.80;;;6.47;;
79036;SDS011;68434;59.896;30.474;2023-06-26T07:15:17;5.88;;;5.28;;
79036;SDS011;68434;59.896;30.474;2023-06-26T07:17:45;6.28;;;5.15;;
79036;SDS011;68434;59.896;30.474;2023-06-26T07:22:58;7.07;;;5.82;;
79036;SDS011;68434;59.896;30.474;2023-06-26T07:25:26;7.18;;;5.78;;
79036;SDS011;68434;59.896;30.474;2023-06-26T07:27:54;6.80;;;5.88;;
79036;SDS011;68434;59.896;30.474;2023-06-26T07:30:23;8.35;;;5.85;;
79036;SDS011;68434;59.896;30.474;2023-06-26T07:32:50;6.75;;;5.75;;
79036;SDS011;68434;59.896;30.474;2023-06-26T07:35:36;8.02;;;5.93;;
79036;SDS011;68434;59.896;30.474;2023-06-26T07:38:04;8.63;;;6.75;;
79036;SDS011;68434;59.896;30.474;2023-06-26T07:40:32;8.07;;;5.47;;
79036;SDS011;68434;59.896;30.474;2023-06-26T07:43:18;7.28;;;5.40;;
79036;SDS011;68434;59.896;30.474;2023-06-26T07:45:49;7.88;;;5.72;;
79036;SDS011;68434;59.896;30.474;2023-06-26T07:48:34;8.02;;;6.47;;
79036;SDS011;68434;59.896;30.474;2023-06-26T07:51:02;7.15;;;6.18;;
79036;SDS011;68434;59.896;30.474;2023-06-26T07:53:48;7.55;;;5.55;;
79036;SDS011;68434;59.896;30.474;2023-06-26T07:56:16;7.75;;;5.65;;
79036;SDS011;68434;59.896;30.474;2023-06-26T07:58:44;7.03;;;5.72;;
79036;SDS011;68434;59.896;30.474;2023-06-26T08:03:59;7.03;;;6.28;;
79036;SDS011;68434;59.896;30.474;2023-06-26T08:06:45;8.90;;;6.07;;
79036;SDS011;68434;59.896;30.474;2023-06-26T08:12:35;6.78;;;5.68;;
79036;SDS011;68434;59.896;30.474;2023-06-26T08:15:21;6.15;;;5.55;;
79036;SDS011;68434;59.896;30.474;2023-06-26T08:17:50;6.35;;;5.65;;
79036;SDS011;68434;59.896;30.474;2023-06-26T08:20:17;9.50;;;6.10;;
79036;SDS011;68434;59.896;30.474;2023-06-26T08:22:46;11.82;;;6.35;;
79036;SDS011;68434;59.896;30.474;2023-06-26T08:25:16;10.98;;;6.25;;
79036;SDS011;68434;59.896;30.474;2023-06-26T08:27:45;7.57;;;5.80;;
79036;SDS011;68434;59.896;30.474;2023-06-26T08:30:12;8.40;;;5.47;;
79036;SDS011;68434;59.896;30.474;2023-06-26T08:32:40;8.15;;;5.60;;
79036;SDS011;68434;59.896;30.474;2023-06-26T08:35:09;8.27;;;6.32;;
79036;SDS011;68434;59.896;30.474;2023-06-26T08:37:37;7.32;;;5.70;;
79036;SDS011;68434;59.896;30.474;2023-06-26T08:43:09;9.18;;;6.13;;
79036;SDS011;68434;59.896;30.474;2023-06-26T08:45:37;6.93;;;6.05;;
79036;SDS011;68434;59.896;30.474;2023-06-26T08:48:23;7.85;;;5.65;;
79036;SDS011;68434;59.896;30.474;2023-06-26T08:53:23;7.10;;;6.05;;
79036;SDS011;68434;59.896;30.474;2023-06-26T08:55:57;7.15;;;6.45;;
79036;SDS011;68434;59.896;30.474;2023-06-26T08:58:26;7.07;;;5.88;;
79036;SDS011;68434;59.896;30.474;2023-06-26T09:00:54;6.50;;;5.30;;
79036;SDS011;68434;59.896;30.474;2023-06-26T09:03:22;7.28;;;5.60;;
79036;SDS011;68434;59.896;30.474;2023-06-26T09:05:53;8.80;;;5.65;;
79036;SDS011;68434;59.896;30.474;2023-06-26T09:08:20;9.30;;;5.32;;
79036;SDS011;68434;59.896;30.474;2023-06-26T09:11:06;7.72;;;5.75;;
79036;SDS011;68434;59.896;30.474;2023-06-26T09:13:34;7.22;;;6.15;;
79036;SDS011;68434;59.896;30.474;2023-06-26T09:16:04;7.68;;;5.80;;
79036;SDS011;68434;59.896;30.474;2023-06-26T09:21:25;6.90;;;5.43;;
79036;SDS011;68434;59.896;30.474;2023-06-26T09:23:53;10.05;;;7.00;;
79036;SDS011;68434;59.896;30.474;2023-06-26T09:26:21;8.55;;;5.93;;
79036;SDS011;68434;59.896;30.474;2023-06-26T09:28:49;7.70;;;6.57;;
79036;SDS011;68434;59.896;30.474;2023-06-26T09:31:19;8.32;;;6.07;;
79036;SDS011;68434;59.896;30.474;2023-06-26T09:33:47;8.73;;;6.18;;
79036;SDS011;68434;59.896;30.474;2023-06-26T09:38:47;11.30;;;5.57;;
79036;SDS011;68434;59.896;30.474;2023-06-26T09:41:15;7.50;;;6.20;;
79036;SDS011;68434;59.896;30.474;2023-06-26T09:43:47;6.55;;;5.70;;
79036;SDS011;68434;59.896;30.474;2023-06-26T09:46:16;6.82;;;5.78;;
79036;SDS011;68434;59.896;30.474;2023-06-26T09:48:44;10.07;;;6.40;;
79036;SDS011;68434;59.896;30.474;2023-06-26T09:51:12;7.45;;;5.70;;
79036;SDS011;68434;59.896;30.474;2023-06-26T09:53:41;7.72;;;6.30;;
79036;SDS011;68434;59.896;30.474;2023-06-26T09:56:14;6.80;;;5.75;;
79036;SDS011;68434;59.896;30.474;2023-06-26T09:58:43;9.60;;;6.47;;
79036;SDS011;68434;59.896;30.474;2023-06-26T10:01:11;7.55;;;6.00;;
79036;SDS011;68434;59.896;30.474;2023-06-26T10:03:39;8.50;;;6.60;;
79036;SDS011;68434;59.896;30.474;2023-06-26T10:06:07;7.50;;;6.60;;
79036;SDS011;68434;59.896;30.474;2023-06-26T10:08:38;6.70;;;6.00;;
79036;SDS011;68434;59.896;30.474;2023-06-26T10:11:28;8.90;;;6.68;;
79036;SDS011;68434;59.896;30.474;2023-06-26T10:14:03;7.28;;;6.57;;
79036;SDS011;68434;59.896;30.474;2023-06-26T10:16:33;7.28;;;6.55;;
79036;SDS011;68434;59.896;30.474;2023-06-26T10:19:04;7.00;;;6.18;;
79036;SDS011;68434;59.896;30.474;2023-06-26T10:21:35;8.65;;;6.53;;
79036;SDS011;68434;59.896;30.474;2023-06-26T10:24:05;9.13;;;6.47;;
79036;SDS011;68434;59.896;30.474;2023-06-26T10:26:38;6.90;;;6.00;;
79036;SDS011;68434;59.896;30.474;2023-06-26T10:29:11;6.88;;;5.65;;
79036;SDS011;68434;59.896;30.474;2023-06-26T10:31:43;8.48;;;5.65;;
79036;SDS011;68434;59.896;30.474;2023-06-26T10:34:15;8.85;;;6.88;;
79036;SDS011;68434;59.896;30.474;2023-06-26T10:36:44;7.38;;;6.28;;
79036;SDS011;68434;59.896;30.474;2023-06-26T10:39:13;9.23;;;5.85;;
79036;SDS011;68434;59.896;30.474;2023-06-26T10:42:09;6.78;;;5.95;;
79036;SDS011;68434;59.896;30.474;2023-06-26T10:44:40;12.82;;;6.97;;
79036;SDS011;68434;59.896;30.474;2023-06-26T10:47:09;8.02;;;6.60;;
79036;SDS011;68434;59.896;30.474;2023-06-26T10:49:37;8.00;;;6.13;;
79036;SDS011;68434;59.896;30.474;2023-06-26T10:52:06;8.05;;;6.72;;
79036;SDS011;68434;59.896;30.474;2023-06-26T10:54:34;7.85;;;6.03;;
79036;SDS011;68434;59.896;30.474;2023-06-26T10:57:05;8.57;;;5.95;;
79036;SDS011;68434;59.896;30.474;2023-06-26T11:02:47;7.20;;;5.55;;
79036;SDS011;68434;59.896;30.474;2023-06-26T11:05:23;7.55;;;6.18;;
79036;SDS011;68434;59.896;30.474;2023-06-26T11:08:05;7.07;;;5.50;;
79036;SDS011;68434;59.896;30.474;2023-06-26T11:10:50;7.82;;;6.30;;
79036;SDS011;68434;59.896;30.474;2023-06-26T11:13:20;6.90;;;5.65;;
79036;SDS011;68434;59.896;30.474;2023-06-26T11:15:49;8.07;;;5.93;;
79036;SDS011;68434;59.896;30.474;2023-06-26T11:18:17;7.28;;;4.78;;
79036;SDS011;68434;59.896;30.474;2023-06-26T11:23:33;5.72;;;4.65;;
79036;SDS011;68434;59.896;30.474;2023-06-26T11:26:14;6.50;;;5.25;;
79036;SDS011;68434;59.896;30.474;2023-06-26T11:29:03;8.63;;;4.93;;
79036;SDS011;68434;59.896;30.474;2023-06-26T11:31:32;6.47;;;5.00;;
79036;SDS011;68434;59.896;30.474;2023-06-26T11:34:02;8.45;;;5.78;;
79036;SDS011;68434;59.896;30.474;2023-06-26T11:36:30;6.63;;;5.53;;
79036;SDS011;68434;59.896;30.474;2023-06-26T11:39:03;7.05;;;4.80;;
79036;SDS011;68434;59.896;30.474;2023-06-26T11:41:51;6.38;;;4.95;;
79036;SDS011;68434;59.896;30.474;2023-06-26T11:44:20;9.98;;;5.28;;
79036;SDS011;68434;59.896;30.474;2023-06-26T11:46:51;9.50;;;5.50;;
79036;SDS011;68434;59.896;30.474;2023-06-26T11:49:21;8.93;;;5.20;;
79036;SDS011;68434;59.896;30.474;2023-06-26T11:52:07;7.50;;;5.03;;
79036;SDS011;68434;59.896;30.474;2023-06-26T11:54:53;6.97;;;4.95;;
79036;SDS011;68434;59.896;30.474;2023-06-26T11:57:21;7.80;;;5.57;;
79036;SDS011;68434;59.896;30.474;2023-06-26T11:59:50;6.28;;;5.20;;
79036;SDS011;68434;59.896;30.474;2023-06-26T12:02:20;6.97;;;5.90;;
79036;SDS011;68434;59.896;30.474;2023-06-26T12:04:48;9.73;;;5.45;;
79036;SDS011;68434;59.896;30.474;2023-06-26T12:07:16;7.50;;;5.53;;
79036;SDS011;68434;59.896;30.474;2023-06-26T12:09:45;6.97;;;5.10;;
79036;SDS011;68434;59.896;30.474;2023-06-26T12:12:14;5.57;;;5.00;;
79036;SDS011;68434;59.896;30.474;2023-06-26T12:14:44;8.38;;;5.63;;
79036;SDS011;68434;59.896;30.474;2023-06-26T12:17:14;6.82;;;5.47;;
79036;SDS011;68434;59.896;30.474;2023-06-26T12:19:43;7.28;;;5.72;;
79036;SDS011;68434;59.896;30.474;2023-06-26T12:22:13;9.30;;;6.30;;
79036;SDS011;68434;59.896;30.474;2023-06-26T12:24:42;7.85;;;6.25;;
79036;SDS011;68434;59.896;30.474;2023-06-26T12:27:10;9.18;;;6.55;;
79036;SDS011;68434;59.896;30.474;2023-06-26T12:29:40;8.40;;;6.20;;
79036;SDS011;68434;59.896;30.474;2023-06-26T12:34:49;6.50;;;4.55;;
79036;SDS011;68434;59.896;30.474;2023-06-26T12:37:17;5.97;;;3.83;;
79036;SDS011;68434;59.896;30.474;2023-06-26T12:39:45;6.78;;;3.75;;
79036;SDS011;68434;59.896;30.474;2023-06-26T12:42:14;9.60;;;4.15;;
79036;SDS011;68434;59.896;30.474;2023-06-26T12:44:42;5.45;;;4.13;;
79036;SDS011;68434;59.896;30.474;2023-06-26T12:47:10;7.22;;;3.92;;
79036;SDS011;68434;59.896;30.474;2023-06-26T12:49:41;5.15;;;3.60;;
79036;SDS011;68434;59.896;30.474;2023-06-26T12:52:29;6.65;;;3.97;;
79036;SDS011;68434;59.896;30.474;2023-06-26T12:54:56;5.65;;;3.90;;
79036;SDS011;68434;59.896;30.474;2023-06-26T12:57:24;5.15;;;3.80;;
79036;SDS011;68434;59.896;30.474;2023-06-26T12:59:52;9.27;;;7.07;;
79036;SDS011;68434;59.896;30.474;2023-06-26T13:02:37;7.20;;;4.50;;
79036;SDS011;68434;59.896;30.474;2023-06-26T13:05:06;8.15;;;5.40;;
79036;SDS011;68434;59.896;30.474;2023-06-26T13:07:34;7.82;;;5.82;;
79036;SDS011;68434;59.896;30.474;2023-06-26T13:10:02;10.02;;;5.43;;
79036;SDS011;68434;59.896;30.474;2023-06-26T13:15:16;7.78;;;4.70;;
79036;SDS011;68434;59.896;30.474;2023-06-26T13:17:44;9.23;;;5.18;;
79036;SDS011;68434;59.896;30.474;2023-06-26T13:20:13;16.80;;;5.57;;
79036;SDS011;68434;59.896;30.474;2023-06-26T13:22:41;9.73;;;4.80;;
79036;SDS011;68434;59.896;30.474;2023-06-26T13:25:08;8.48;;;5.07;;
79036;SDS011;68434;59.896;30.474;2023-06-26T13:27:36;8.00;;;4.40;;
79036;SDS011;68434;59.896;30.474;2023-06-26T13:30:04;7.55;;;4.65;;
79036;SDS011;68434;59.896;30.474;2023-06-26T13:32:33;8.13;;;4.45;;
79036;SDS011;68434;59.896;30.474;2023-06-26T13:35:00;8.27;;;4.93;;
79036;SDS011;68434;59.896;30.474;2023-06-26T13:37:30;10.90;;;5.32;;
79036;SDS011;68434;59.896;30.474;2023-06-26T13:39:59;9.85;;;7.10;;
79036;SDS011;68434;59.896;30.474;2023-06-26T13:42:30;9.88;;;6.22;;
79036;SDS011;68434;59.896;30.474;2023-06-26T13:44:58;10.82;;;6.43;;
79036;SDS011;68434;59.896;30.474;2023-06-26T13:47:25;9.52;;;5.82;;
79036;SDS011;68434;59.896;30.474;2023-06-26T13:49:53;11.27;;;6.25;;
79036;SDS011;68434;59.896;30.474;2023-06-26T13:52:20;9.43;;;5.30;;
79036;SDS011;68434;59.896;30.474;2023-06-26T13:54:49;11.60;;;5.55;;
79036;SDS011;68434;59.896;30.474;2023-06-26T13:57:17;7.85;;;5.25;;
79036;SDS011;68434;59.896;30.474;2023-06-26T13:59:45;9.07;;;5.47;;
79036;SDS011;68434;59.896;30.474;2023-06-26T14:02:12;8.75;;;5.53;;
79036;SDS011;68434;59.896;30.474;2023-06-26T14:07:25;9.23;;;5.15;;
79036;SDS011;68434;59.896;30.474;2023-06-26T14:09:54;6.78;;;4.78;;
79036;SDS011;68434;59.896;30.474;2023-06-26T14:12:22;8.05;;;5.13;;
79036;SDS011;68434;59.896;30.474;2023-06-26T14:14:50;8.55;;;6.07;;
79036;SDS011;68434;59.896;30.474;2023-06-26T14:17:18;6.45;;;4.80;;
79036;SDS011;68434;59.896;30.474;2023-06-26T14:19:46;7.65;;;5.78;;
79036;SDS011;68434;59.896;30.474;2023-06-26T14:22:13;8.48;;;5.65;;
79036;SDS011;68434;59.896;30.474;2023-06-26T14:24:41;7.68;;;5.72;;
79036;SDS011;68434;59.896;30.474;2023-06-26T14:27:10;8.77;;;5.93;;
79036;SDS011;68434;59.896;30.474;2023-06-26T14:29:38;9.07;;;5.78;;
79036;SDS011;68434;59.896;30.474;2023-06-26T14:32:05;8.88;;;6.00;;
79036;SDS011;68434;59.896;30.474;2023-06-26T14:37:00;7.25;;;5.22;;
79036;SDS011;68434;59.896;30.474;2023-06-26T14:39:28;6.53;;;5.47;;
79036;SDS011;68434;59.896;30.474;2023-06-26T14:41:56;8.32;;;5.50;;
79036;SDS011;68434;59.896;30.474;2023-06-26T14:44:25;7.70;;;6.22;;
79036;SDS011;68434;59.896;30.474;2023-06-26T14:46:52;7.80;;;5.80;;
79036;SDS011;68434;59.896;30.474;2023-06-26T14:49:20;8.38;;;5.88;;
79036;SDS011;68434;59.896;30.474;2023-06-26T14:51:47;8.02;;;5.03;;
79036;SDS011;68434;59.896;30.474;2023-06-26T14:54:15;7.65;;;5.80;;
79036;SDS011;68434;59.896;30.474;2023-06-26T14:59:48;7.65;;;5.70;;
79036;SDS011;68434;59.896;30.474;2023-06-26T15:02:16;10.52;;;5.82;;
79036;SDS011;68434;59.896;30.474;2023-06-26T15:04:43;7.07;;;5.10;;
79036;SDS011;68434;59.896;30.474;2023-06-26T15:07:11;8.23;;;5.68;;
79036;SDS011;68434;59.896;30.474;2023-06-26T15:09:39;6.53;;;5.60;;
79036;SDS011;68434;59.896;30.474;2023-06-26T15:12:07;6.93;;;5.32;;
79036;SDS011;68434;59.896;30.474;2023-06-26T15:14:35;7.35;;;5.88;;
79036;SDS011;68434;59.896;30.474;2023-06-26T15:17:04;9.65;;;6.28;;
79036;SDS011;68434;59.896;30.474;2023-06-26T15:19:33;7.15;;;5.18;;
79036;SDS011;68434;59.896;30.474;2023-06-26T15:22:00;7.88;;;5.28;;
79036;SDS011;68434;59.896;30.474;2023-06-26T15:24:28;8.52;;;6.18;;
79036;SDS011;68434;59.896;30.474;2023-06-26T15:26:56;9.02;;;6.10;;
79036;SDS011;68434;59.896;30.474;2023-06-26T15:29:24;6.47;;;5.35;;
79036;SDS011;68434;59.896;30.474;2023-06-26T15:31:52;7.70;;;5.95;;
79036;SDS011;68434;59.896;30.474;2023-06-26T15:34:21;8.80;;;6.20;;
79036;SDS011;68434;59.896;30.474;2023-06-26T15:36:48;9.35;;;6.13;;
79036;SDS011;68434;59.896;30.474;2023-06-26T15:39:35;8.77;;;6.80;;
79036;SDS011;68434;59.896;30.474;2023-06-26T15:42:44;9.80;;;7.32;;
79036;SDS011;68434;59.896;30.474;2023-06-26T15:45:30;7.55;;;6.28;;
79036;SDS011;68434;59.896;30.474;2023-06-26T15:53:50;9.23;;;7.22;;
79036;SDS011;68434;59.896;30.474;2023-06-26T15:56:18;10.07;;;7.40;;
79036;SDS011;68434;59.896;30.474;2023-06-26T15:59:05;8.02;;;6.82;;
79036;SDS011;68434;59.896;30.474;2023-06-26T16:01:33;7.20;;;6.05;;
79036;SDS011;68434;59.896;30.474;2023-06-26T16:04:00;9.00;;;7.18;;
79036;SDS011;68434;59.896;30.474;2023-06-26T16:06:28;11.60;;;7.05;;
79036;SDS011;68434;59.896;30.474;2023-06-26T16:08:57;9.25;;;7.25;;
79036;SDS011;68434;59.896;30.474;2023-06-26T16:11:25;8.70;;;7.13;;
79036;SDS011;68434;59.896;30.474;2023-06-26T16:13:52;10.23;;;7.10;;
79036;SDS011;68434;59.896;30.474;2023-06-26T16:18:47;10.10;;;6.22;;